Time;durP1;ratioP1;P1;durP2;ratioP2;P2;SDS_P1;SDS_P2;PMS_P1;PMS_P2;Temp;Humidity;BMP_temperature;BMP_pressure;BME280_temperature;BME280_humidity;BME280_pressure;Samples;Min_cycle;Max_cycle;Signal;HPM_P1;HPM_P2
2023/06/25 00:01:18;;;;;;;4.30;1.88;;;;;;;19.57;100.00;100753.72;4960343;28;20252;-80
2023/06/25 00:03:45;;;;;;;5.80;2.38;;;;;;;19.13;100.00;100770.72;4957477;28;20237;-79
2023/06/25 00:06:11;;;;;;;6.43;2.30;;;;;;;19.37;100.00;100769.31;4959725;28;20232;-78
2023/06/25 00:08:38;;;;;;;5.10;2.10;;;;;;;19.39;100.00;100779.09;4951528;28;20237;-78
2023/06/25 00:11:05;;;;;;;9.13;3.03;;;;;;;19.18;100.00;100777.75;4956545;28;20238;-78
2023/06/25 00:13:31;;;;;;;4.43;1.90;;;;;;;18.71;100.00;100788.53;4960285;28;20270;-79
2023/06/25 00:15:58;;;;;;;6.93;2.88;;;;;;;18.97;100.00;100817.50;4952452;28;20238;-78
2023/06/25 00:18:26;;;;;;;3.30;1.77;;;;;;;19.19;100.00;100813.47;4948640;28;20320;-78
2023/06/25 00:20:54;;;;;;;4.28;1.80;;;;;;;18.98;100.00;100797.84;4938806;28;20244;-77
2023/06/25 00:23:21;;;;;;;4.70;2.00;;;;;;;18.55;100.00;100777.19;4942871;28;20257;-79
2023/06/25 00:25:47;;;;;;;5.38;2.40;;;;;;;18.71;100.00;100805.47;4942494;28;20244;-78
2023/06/25 00:28:14;;;;;;;6.32;2.53;;;;;;;18.42;100.00;100808.66;4932851;28;20245;-78
2023/06/25 00:30:41;;;;;;;4.78;1.80;;;;;;;18.40;100.00;100815.81;4950721;28;20241;-79
2023/06/25 00:33:08;;;;;;;8.50;2.60;;;;;;;18.74;100.00;100824.19;4939992;28;20237;-79
2023/06/25 00:35:50;;;;;;;4.53;2.17;;;;;;;18.91;100.00;100807.78;4938744;28;20233;-79
2023/06/25 00:38:19;;;;;;;4.85;2.05;;;;;;;18.62;100.00;100802.97;4940402;28;20636;-78
2023/06/25 00:40:46;;;;;;;5.68;2.65;;;;;;;18.58;100.00;100792.31;4942425;28;20249;-79
2023/06/25 00:43:16;;;;;;;9.23;3.45;;;;;;;18.42;100.00;100786.34;4935864;28;20695;-78
2023/06/25 00:45:43;;;;;;;4.63;2.03;;;;;;;18.48;100.00;100783.56;4936139;28;20640;-79
2023/06/25 00:48:10;;;;;;;10.10;3.13;;;;;;;18.64;100.00;100802.94;4937770;28;20246;-78
2023/06/25 00:50:36;;;;;;;8.73;2.95;;;;;;;18.35;100.00;100820.38;4942245;28;20238;-78
2023/06/25 00:53:08;;;;;;;7.65;2.60;;;;;;;18.45;100.00;100821.09;4940221;28;20293;-77
2023/06/25 00:55:35;;;;;;;6.00;2.17;;;;;;;18.55;100.00;100853.06;4940638;28;20236;-79
2023/06/25 00:58:03;;;;;;;14.20;4.00;;;;;;;17.96;100.00;100831.69;4938467;28;20237;-78
2023/06/25 01:00:33;;;;;;;3.10;1.45;;;;;;;17.72;100.00;100823.09;4937377;28;20266;-79
2023/06/25 01:03:07;;;;;;;8.77;2.67;;;;;;;17.81;100.00;100830.09;4943256;28;20236;-78
2023/06/25 01:05:43;;;;;;;5.90;2.55;;;;;;;17.75;100.00;100833.75;4940632;28;20241;-79
2023/06/25 01:08:10;;;;;;;10.85;3.17;;;;;;;17.87;100.00;100832.69;4936281;28;20243;-78
2023/06/25 01:10:38;;;;;;;7.18;2.67;;;;;;;18.13;100.00;100841.22;4941780;28;20242;-78
2023/06/25 01:13:05;;;;;;;11.75;3.30;;;;;;;17.78;100.00;100835.50;4930327;28;20239;-78
2023/06/25 01:15:32;;;;;;;7.65;2.63;;;;;;;17.61;100.00;100849.06;4937085;28;20253;-79
2023/06/25 01:17:59;;;;;;;9.77;2.95;;;;;;;17.90;100.00;100857.63;4941677;28;20241;-78
2023/06/25 01:20:27;;;;;;;7.10;2.67;;;;;;;18.00;100.00;100871.75;4958465;28;20244;-79
2023/06/25 01:22:55;;;;;;;6.10;2.33;;;;;;;17.72;100.00;100863.22;4931740;28;20698;-78
2023/06/25 01:25:24;;;;;;;5.20;1.90;;;;;;;17.75;100.00;100862.31;4950758;28;20242;-77
2023/06/25 01:27:51;;;;;;;7.63;2.90;;;;;;;17.87;100.00;100867.47;4930569;28;20245;-79
2023/06/25 01:30:21;;;;;;;7.03;2.58;;;;;;;17.54;100.00;100867.00;4942136;28;20268;-78
2023/06/25 01:32:48;;;;;;;5.82;2.33;;;;;;;17.42;100.00;100860.91;4945494;28;20225;-79
2023/06/25 01:35:15;;;;;;;10.32;3.75;;;;;;;17.70;100.00;100858.81;4936432;28;20333;-80
2023/06/25 01:37:42;;;;;;;5.18;1.90;;;;;;;17.97;100.00;100857.53;4945626;28;20232;-79
2023/06/25 01:40:09;;;;;;;12.63;3.75;;;;;;;17.92;100.00;100844.22;4933919;28;20261;-79
2023/06/25 01:42:36;;;;;;;4.82;2.05;;;;;;;17.53;100.00;100850.97;4939258;28;20232;-79
2023/06/25 01:45:03;;;;;;;11.90;3.45;;;;;;;17.70;100.00;100856.13;4936977;28;20289;-80
2023/06/25 01:47:30;;;;;;;6.85;2.55;;;;;;;17.89;100.00;100887.97;4934708;28;20237;-80
2023/06/25 01:49:57;;;;;;;8.00;2.75;;;;;;;17.80;100.00;100892.56;4935552;28;20304;-80
2023/06/25 01:52:24;;;;;;;7.70;2.60;;;;;;;17.83;100.00;100882.69;4938553;28;20233;-80
2023/06/25 01:54:51;;;;;;;5.90;1.95;;;;;;;17.72;100.00;100897.13;4938825;28;20242;-80
2023/06/25 01:57:18;;;;;;;6.75;2.10;;;;;;;17.63;100.00;100895.41;4927860;28;20240;-80
2023/06/25 01:59:45;;;;;;;6.45;2.10;;;;;;;17.46;100.00;100911.66;4929863;28;20234;-80
2023/06/25 02:02:11;;;;;;;16.10;4.30;;;;;;;17.48;100.00;100911.63;4931564;28;20226;-80
2023/06/25 02:04:38;;;;;;;7.97;2.95;;;;;;;17.63;100.00;100923.94;4933818;28;20714;-80
2023/06/25 02:07:05;;;;;;;10.15;3.50;;;;;;;17.40;100.00;100930.44;4926367;28;20313;-80
2023/06/25 02:09:32;;;;;;;7.75;2.60;;;;;;;17.13;100.00;100915.59;4936599;28;20317;-80
2023/06/25 02:11:59;;;;;;;7.75;2.55;;;;;;;16.87;100.00;100898.88;4929760;28;20669;-80
2023/06/25 02:14:25;;;;;;;5.78;2.10;;;;;;;16.92;100.00;100899.75;4933441;28;20225;-80
2023/06/25 02:16:52;;;;;;;8.07;3.33;;;;;;;16.85;100.00;100909.59;4950778;28;20233;-80
2023/06/25 02:19:19;;;;;;;6.88;2.72;;;;;;;16.98;100.00;100906.84;4956853;28;20251;-80
2023/06/25 02:21:45;;;;;;;7.32;2.33;;;;;;;16.93;100.00;100902.41;4965603;28;20249;-80
2023/06/25 02:24:12;;;;;;;14.27;3.80;;;;;;;16.97;100.00;100915.75;4944498;28;20233;-80
2023/06/25 02:26:40;;;;;;;10.23;3.25;;;;;;;16.87;100.00;100914.91;4933279;29;20700;-80
2023/06/25 02:29:06;;;;;;;16.38;4.90;;;;;;;16.49;100.00;100908.09;4949972;28;20689;-80
2023/06/25 02:31:33;;;;;;;7.03;2.85;;;;;;;16.26;100.00;100926.94;4955821;28;20244;-80
2023/06/25 02:34:00;;;;;;;10.95;3.08;;;;;;;16.43;100.00;100934.81;4934938;28;20234;-80
2023/06/25 02:36:27;;;;;;;5.03;1.90;;;;;;;16.83;100.00;100959.47;4959030;28;20233;-79
2023/06/25 02:38:55;;;;;;;5.50;2.05;;;;;;;16.91;100.00;100967.47;4940603;28;20248;-80
2023/06/25 02:41:21;;;;;;;5.00;1.92;;;;;;;16.74;100.00;100958.66;4945204;28;20252;-80
2023/06/25 02:43:48;;;;;;;4.68;2.00;;;;;;;16.98;100.00;100947.81;4959113;28;20228;-80
2023/06/25 02:46:15;;;;;;;10.20;3.75;;;;;;;17.12;100.00;100943.22;4950719;28;20242;-79
2023/06/25 02:48:42;;;;;;;6.43;2.28;;;;;;;17.17;100.00;100952.06;4939672;28;20229;-79
2023/06/25 02:51:10;;;;;;;12.38;3.83;;;;;;;17.16;100.00;100950.31;4954842;28;20240;-80
2023/06/25 02:53:36;;;;;;;6.40;2.55;;;;;;;16.82;100.00;100941.66;4942545;28;20225;-80
2023/06/25 02:56:03;;;;;;;12.90;3.97;;;;;;;16.23;100.00;100947.41;4949875;28;20225;-79
2023/06/25 02:58:30;;;;;;;6.05;2.40;;;;;;;16.46;100.00;100952.59;4958403;28;20301;-79
2023/06/25 03:00:57;;;;;;;6.68;2.20;;;;;;;16.43;100.00;100960.63;4954000;28;20236;-79
2023/06/25 03:03:23;;;;;;;6.18;2.50;;;;;;;15.71;100.00;100960.13;4959354;28;20256;-80
2023/06/25 03:05:50;;;;;;;6.30;2.30;;;;;;;15.78;100.00;100964.53;4961116;28;20295;-80
2023/06/25 03:08:17;;;;;;;7.25;2.78;;;;;;;15.97;100.00;100976.91;4950938;28;20238;-80
2023/06/25 03:10:44;;;;;;;6.63;2.22;;;;;;;16.00;100.00;100979.56;4946716;28;20300;-79
2023/06/25 03:13:11;;;;;;;16.13;4.45;;;;;;;16.17;100.00;100969.69;4955373;28;20697;-80
2023/06/25 03:15:38;;;;;;;9.45;2.58;;;;;;;16.42;100.00;100964.19;4955811;28;20244;-79
2023/06/25 03:18:05;;;;;;;16.00;3.90;;;;;;;15.99;100.00;100981.34;4961406;28;20284;-79
2023/06/25 03:20:31;;;;;;;10.10;2.85;;;;;;;15.97;100.00;100991.13;4965653;28;20328;-80
2023/06/25 03:22:58;;;;;;;14.30;3.83;;;;;;;16.17;100.00;101008.81;4942412;28;20642;-79
2023/06/25 03:25:25;;;;;;;11.07;3.42;;;;;;;16.37;100.00;101004.28;4959781;28;20240;-80
2023/06/25 03:27:51;;;;;;;8.23;2.63;;;;;;;16.13;100.00;100997.28;4959107;28;20225;-79
2023/06/25 03:30:18;;;;;;;8.85;2.63;;;;;;;16.18;100.00;100995.47;4937420;28;20242;-80
2023/06/25 03:32:45;;;;;;;11.55;3.10;;;;;;;16.13;100.00;101007.06;4957808;28;20233;-80
2023/06/25 03:35:12;;;;;;;15.77;3.95;;;;;;;16.12;100.00;101000.84;4959279;28;20241;-80
2023/06/25 03:37:38;;;;;;;7.93;2.40;;;;;;;16.02;100.00;101006.22;4960903;28;20234;-79
2023/06/25 03:40:06;;;;;;;17.20;4.22;;;;;;;15.97;100.00;101016.91;4954362;28;20816;-80
2023/06/25 03:42:32;;;;;;;8.00;2.55;;;;;;;16.12;100.00;101021.31;4954225;28;20225;-79
2023/06/25 03:44:59;;;;;;;8.65;2.58;;;;;;;16.20;100.00;101020.38;4956924;28;20288;-80
2023/06/25 03:47:26;;;;;;;6.70;2.08;;;;;;;16.26;100.00;101016.78;4956204;28;20341;-80
2023/06/25 03:49:52;;;;;;;6.07;2.20;;;;;;;16.09;100.00;101026.66;4955138;28;20240;-79
2023/06/25 03:52:19;;;;;;;7.25;2.83;;;;;;;15.91;100.00;101023.16;4936180;28;20239;-80
2023/06/25 03:54:46;;;;;;;5.95;2.15;;;;;;;15.95;100.00;101027.59;4939348;28;20234;-80
2023/06/25 03:57:12;;;;;;;14.98;3.97;;;;;;;15.91;100.00;101038.28;4954413;28;20233;-80
2023/06/25 03:59:39;;;;;;;9.20;3.15;;;;;;;15.85;100.00;101048.97;4953593;28;20237;-80
2023/06/25 04:02:07;;;;;;;9.25;2.97;;;;;;;16.09;100.00;101064.00;4960160;28;20233;-79
2023/06/25 04:04:34;;;;;;;6.60;2.33;;;;;;;16.09;100.00;101035.53;4951517;28;20225;-80
2023/06/25 04:07:01;;;;;;;12.82;4.03;;;;;;;16.15;100.00;101039.97;4943767;28;20281;-80
2023/06/25 04:09:27;;;;;;;8.18;2.42;;;;;;;16.23;100.00;101041.69;4954463;28;20293;-79
2023/06/25 04:11:54;;;;;;;4.95;2.00;;;;;;;16.31;100.00;101047.00;4955878;28;20237;-80
2023/06/25 04:14:21;;;;;;;5.45;2.00;;;;;;;16.32;100.00;101046.13;4949761;28;20234;-79
2023/06/25 04:16:47;;;;;;;9.10;3.20;;;;;;;16.44;100.00;101034.50;4985953;23;20234;-77
2023/06/25 04:19:14;;;;;;;17.77;4.20;;;;;;;16.38;100.00;101026.50;4971808;28;21908;-77
2023/06/25 04:21:41;;;;;;;4.70;2.00;;;;;;;16.46;100.00;101017.56;4953355;28;20283;-76
2023/06/25 04:24:08;;;;;;;28.70;5.38;;;;;;;16.51;100.00;101030.88;4955334;28;20285;-76
2023/06/25 04:26:35;;;;;;;7.20;3.60;;;;;;;16.52;100.00;101024.66;4953219;28;20225;-75
2023/06/25 04:29:02;;;;;;;22.95;6.13;;;;;;;16.53;100.00;101032.66;4947949;28;20224;-75
2023/06/25 04:31:30;;;;;;;5.05;2.30;;;;;;;16.52;100.00;101041.56;4955385;28;20244;-73
2023/06/25 04:33:56;;;;;;;4.90;2.40;;;;;;;16.67;100.00;101031.72;4950211;28;20229;-75
2023/06/25 04:36:23;;;;;;;7.28;3.22;;;;;;;16.69;100.00;101046.84;4956686;28;20241;-74
2023/06/25 04:38:50;;;;;;;4.00;2.13;;;;;;;16.73;100.00;101042.34;4964624;28;20240;-73
2023/06/25 04:41:16;;;;;;;2.38;1.95;;;;;;;16.79;100.00;101035.19;4958056;28;20249;-74
2023/06/25 04:43:43;;;;;;;4.68;2.28;;;;;;;16.92;100.00;101007.53;4958068;28;20248;-75
2023/06/25 04:46:10;;;;;;;16.75;5.43;;;;;;;17.04;100.00;100987.81;4949190;28;20317;-76
2023/06/25 04:48:37;;;;;;;6.20;2.95;;;;;;;17.13;100.00;100990.41;4950373;28;20323;-76
2023/06/25 04:51:04;;;;;;;21.33;5.93;;;;;;;17.21;100.00;100967.19;4934867;28;20232;-76
2023/06/25 04:53:31;;;;;;;5.45;2.78;;;;;;;17.34;100.00;100965.28;4948928;28;20299;-77
2023/06/25 04:56:00;;;;;;;7.50;3.45;;;;;;;17.43;100.00;100951.81;4942955;28;20237;-76
2023/06/25 04:58:27;;;;;;;5.43;2.47;;;;;;;17.70;100.00;100976.50;4956138;28;20229;-78
2023/06/25 05:00:53;;;;;;;5.47;2.67;;;;;;;17.83;100.00;100975.44;4951417;28;20238;-74
2023/06/25 05:03:20;;;;;;;8.40;3.50;;;;;;;17.95;100.00;101002.06;4946580;28;20233;-74
2023/06/25 05:05:47;;;;;;;5.07;2.13;;;;;;;18.13;100.00;101012.53;4959646;28;20229;-74
2023/06/25 05:08:14;;;;;;;10.60;3.55;;;;;;;18.23;100.00;101016.00;4950254;28;20230;-75
2023/06/25 05:10:42;;;;;;;5.55;2.45;;;;;;;18.43;100.00;101035.38;4962354;28;20236;-75
2023/06/25 05:13:09;;;;;;;10.25;3.40;;;;;;;18.61;100.00;101044.06;4947820;28;20257;-77
2023/06/25 05:15:38;;;;;;;9.10;3.45;;;;;;;18.70;100.00;101030.56;4957914;28;20289;-75
2023/06/25 05:18:06;;;;;;;9.82;3.78;;;;;;;18.86;100.00;101019.59;4948174;28;20239;-76
2023/06/25 05:20:35;;;;;;;6.68;3.08;;;;;;;19.02;100.00;100997.91;4962769;28;20256;-77
2023/06/25 05:23:03;;;;;;;10.35;3.33;;;;;;;19.16;100.00;100969.06;4937483;28;20225;-75
2023/06/25 05:25:31;;;;;;;11.43;4.03;;;;;;;19.26;100.00;100948.31;4951069;28;20229;-75
2023/06/25 05:28:01;;;;;;;14.43;4.47;;;;;;;19.43;100.00;100931.00;4950939;28;20221;-76
2023/06/25 05:30:28;;;;;;;13.52;4.70;;;;;;;19.64;100.00;100918.13;4950462;28;20237;-75
2023/06/25 05:32:57;;;;;;;14.38;4.35;;;;;;;19.55;100.00;100857.50;4945277;28;20312;-76
2023/06/25 05:35:26;;;;;;;20.33;6.57;;;;;;;19.85;100.00;100858.63;4952429;28;20233;-76
2023/06/25 05:37:53;;;;;;;13.45;4.40;;;;;;;20.04;100.00;100849.25;4952152;28;21037;-76
2023/06/25 05:40:19;;;;;;;15.80;5.30;;;;;;;20.13;100.00;100843.66;4942659;28;20248;-76
2023/06/25 05:42:46;;;;;;;16.45;5.18;;;;;;;20.09;100.00;100815.13;4952132;28;20225;-75
2023/06/25 05:45:13;;;;;;;18.98;5.22;;;;;;;20.21;100.00;100802.31;4947839;28;20223;-76
2023/06/25 05:47:39;;;;;;;13.80;4.10;;;;;;;20.41;100.00;100783.91;4950621;28;20226;-76
2023/06/25 05:50:06;;;;;;;30.92;7.97;;;;;;;20.37;100.00;100734.72;4943970;28;20240;-75
2023/06/25 05:52:34;;;;;;;15.77;5.38;;;;;;;20.57;100.00;100758.41;4951238;28;20229;-76
2023/06/25 05:55:01;;;;;;;17.83;4.93;;;;;;;20.49;100.00;100735.34;4946720;28;20245;-76
2023/06/25 05:57:27;;;;;;;12.90;4.28;;;;;;;20.60;100.00;100738.63;4948112;28;20256;-76
2023/06/25 05:59:54;;;;;;;14.30;4.53;;;;;;;20.77;100.00;100769.50;4953452;28;20233;-76
2023/06/25 06:02:21;;;;;;;11.63;4.15;;;;;;;20.89;100.00;100762.06;4949331;28;20240;-76
2023/06/25 06:04:47;;;;;;;9.02;3.17;;;;;;;20.84;100.00;100716.47;4947114;28;20233;-76
2023/06/25 06:07:14;;;;;;;10.60;4.05;;;;;;;20.93;100.00;100721.59;4945449;28;20229;-76
2023/06/25 06:09:41;;;;;;;10.88;3.80;;;;;;;21.16;100.00;100715.53;4952630;28;20236;-77
2023/06/25 06:12:08;;;;;;;16.15;4.95;;;;;;;21.29;100.00;100727.72;4948602;28;20245;-76
2023/06/25 06:14:37;;;;;;;20.80;5.53;;;;;;;21.56;100.00;100735.88;4947493;28;20707;-75
2023/06/25 06:17:05;;;;;;;24.40;6.47;;;;;;;21.57;100.00;100694.56;4944046;28;20689;-76
2023/06/25 06:19:32;;;;;;;16.98;5.25;;;;;;;21.65;100.00;100684.44;4948020;28;20232;-76
2023/06/25 06:21:59;;;;;;;10.30;3.25;;;;;;;21.83;100.00;100702.69;4953140;28;20225;-77
2023/06/25 06:24:27;;;;;;;11.73;2.88;;;;;;;21.95;100.00;100672.66;4954018;28;20237;-77
2023/06/25 06:26:54;;;;;;;6.85;3.03;;;;;;;22.10;100.00;100660.50;4949447;28;20233;-76
2023/06/25 06:29:21;;;;;;;6.68;2.42;;;;;;;22.18;100.00;100634.22;4948456;28;20296;-77
2023/06/25 06:31:47;;;;;;;7.53;2.58;;;;;;;22.14;100.00;100612.81;4953648;28;20233;-76
2023/06/25 06:34:14;;;;;;;7.90;3.05;;;;;;;22.14;100.00;100589.47;4954015;28;20673;-77
2023/06/25 06:36:41;;;;;;;6.00;2.58;;;;;;;22.42;100.00;100593.84;4954173;28;20233;-77
2023/06/25 06:39:08;;;;;;;10.90;4.05;;;;;;;22.68;100.00;100574.84;4946958;28;20235;-76
2023/06/25 06:41:34;;;;;;;4.05;1.63;;;;;;;22.64;100.00;100520.19;4957982;28;20237;-76
2023/06/25 06:44:13;;;;;;;13.38;4.00;;;;;;;22.77;100.00;100506.22;4955059;28;20624;-76
2023/06/25 06:46:40;;;;;;;7.00;2.33;;;;;;;22.94;100.00;100506.44;4950850;28;20320;-74
2023/06/25 06:49:07;;;;;;;11.90;3.58;;;;;;;23.31;100.00;100506.69;4955305;28;20236;-76
2023/06/25 06:51:34;;;;;;;8.90;2.60;;;;;;;23.66;100.00;100500.75;4956606;28;20244;-75
2023/06/25 06:54:01;;;;;;;17.42;4.70;;;;;;;23.80;100.00;100463.22;4950589;28;20291;-76
2023/06/25 06:56:28;;;;;;;7.45;2.45;;;;;;;23.59;100.00;100386.78;4959322;28;20223;-76
2023/06/25 06:58:55;;;;;;;8.48;2.72;;;;;;;23.55;100.00;100323.06;4957000;28;20319;-75
2023/06/25 07:01:25;;;;;;;12.25;3.72;;;;;;;23.91;100.00;100313.25;4956457;28;20244;-75
2023/06/25 07:03:52;;;;;;;14.02;3.97;;;;;;;24.03;100.00;100271.25;4946391;28;20364;-76
2023/06/25 07:06:20;;;;;;;7.80;2.65;;;;;;;23.98;99.24;100146.34;4947328;28;20260;-75
2023/06/25 07:08:47;;;;;;;5.85;2.50;;;;;;;24.23;97.43;100136.03;4956852;28;20275;-77
2023/06/25 07:11:16;;;;;;;30.45;7.13;;;;;;;24.73;100.00;100196.56;4948607;28;20331;-75
2023/06/25 07:13:43;;;;;;;4.28;1.77;;;;;;;24.65;98.65;100142.00;4959734;28;20239;-76
2023/06/25 07:16:10;;;;;;;13.80;4.43;;;;;;;24.92;98.83;100147.78;4952762;28;20239;-76
2023/06/25 07:18:37;;;;;;;5.50;2.20;;;;;;;25.38;99.08;100175.91;4958658;28;20236;-75
2023/06/25 07:21:05;;;;;;;9.13;2.78;;;;;;;25.00;92.29;100013.00;4952861;28;20243;-76
2023/06/25 07:23:34;;;;;;;5.45;2.22;;;;;;;24.96;93.41;100005.97;4956913;28;20224;-75
2023/06/25 07:26:02;;;;;;;9.63;2.88;;;;;;;25.25;92.24;100012.44;4936792;28;20232;-76
2023/06/25 07:28:30;;;;;;;6.85;2.33;;;;;;;25.32;90.99;99984.94;4946216;28;20565;-76
2023/06/25 07:30:57;;;;;;;6.80;2.38;;;;;;;25.33;92.23;99983.97;4949876;28;20236;-75
2023/06/25 07:33:23;;;;;;;7.85;2.85;;;;;;;25.62;88.40;99962.41;4952285;28;20244;-76
2023/06/25 07:35:50;;;;;;;4.57;1.90;;;;;;;25.60;81.38;99861.44;4955521;28;20291;-76
2023/06/25 07:38:17;;;;;;;4.60;1.83;;;;;;;25.50;79.34;99782.63;4952312;28;20580;-76
2023/06/25 07:40:44;;;;;;;6.93;2.45;;;;;;;25.72;77.21;99760.50;4959274;28;20252;-76
2023/06/25 07:43:11;;;;;;;12.93;4.38;;;;;;;25.99;79.80;99806.63;4950395;28;20232;-76
2023/06/25 07:45:38;;;;;;;8.50;2.70;;;;;;;25.81;83.07;99787.00;4952313;28;20283;-76
2023/06/25 07:48:06;;;;;;;10.43;3.42;;;;;;;26.20;83.23;99817.94;4947724;28;20237;-75
2023/06/25 07:50:33;;;;;;;7.95;2.67;;;;;;;26.36;80.16;99802.44;4954054;28;20604;-75
2023/06/25 07:53:00;;;;;;;25.40;6.07;;;;;;;26.79;79.85;99816.72;4933563;28;20263;-75
2023/06/25 07:55:39;;;;;;;6.70;2.30;;;;;;;26.70;74.99;99725.97;4944553;28;20311;-76
2023/06/25 07:58:26;;;;;;;5.68;2.47;;;;;;;26.09;72.17;99564.78;4896916;28;20292;-76
2023/06/25 08:00:53;;;;;;;7.75;3.65;;;;;;;26.41;72.85;99600.53;4950529;28;20705;-76
2023/06/25 08:03:21;;;;;;;4.55;2.33;;;;;;;26.02;71.17;99503.88;4947516;28;20232;-76
2023/06/25 08:05:48;;;;;;;6.50;2.78;;;;;;;26.57;73.10;99589.50;4956868;28;20252;-76
2023/06/25 08:08:15;;;;;;;19.40;3.60;;;;;;;26.58;71.80;99545.13;4954044;28;20282;-76
2023/06/25 08:10:42;;;;;;;3.35;1.65;;;;;;;27.15;69.69;99589.91;4956472;28;20278;-76
2023/06/25 08:13:09;;;;;;;7.03;3.08;;;;;;;27.20;69.84;99574.16;4957754;28;20240;-76
2023/06/25 08:15:35;;;;;;;6.20;2.63;;;;;;;27.67;67.46;99579.72;4957624;28;20236;-76
2023/06/25 08:18:03;;;;;;;10.65;3.80;;;;;;;27.51;65.87;99510.34;4966153;28;20332;-77
2023/06/25 08:20:30;;;;;;;7.55;2.97;;;;;;;28.33;68.39;99619.06;4953121;28;20236;-77
2023/06/25 08:22:57;;;;;;;9.65;3.28;;;;;;;27.47;64.37;99417.38;4952464;28;20225;-76
2023/06/25 08:25:25;;;;;;;8.27;2.63;;;;;;;27.66;65.02;99423.16;4957212;28;20240;-77
2023/06/25 08:27:52;;;;;;;8.23;2.83;;;;;;;27.52;67.00;99420.59;4962489;28;20279;-76
2023/06/25 08:30:19;;;;;;;9.27;3.13;;;;;;;27.48;62.03;99343.06;4950320;28;20225;-76
2023/06/25 08:32:45;;;;;;;7.82;2.42;;;;;;;27.97;69.80;99485.97;4961686;28;20312;-75
2023/06/25 08:35:12;;;;;;;14.60;4.53;;;;;;;28.45;70.83;99570.16;4951198;28;20248;-75
2023/06/25 08:37:39;;;;;;;10.43;3.47;;;;;;;28.67;61.96;99450.50;4972228;28;20239;-76
2023/06/25 08:40:06;;;;;;;6.75;2.55;;;;;;;28.03;63.61;99357.75;4934609;28;20326;-76
2023/06/25 08:42:33;;;;;;;8.07;3.10;;;;;;;28.29;63.67;99382.88;4953397;28;20235;-76
2023/06/25 08:45:00;;;;;;;8.00;2.72;;;;;;;28.03;61.60;99301.56;4953831;28;20231;-75
2023/06/25 08:47:33;;;;;;;10.23;3.50;;;;;;;28.26;63.93;99356.81;4956459;28;20239;-77
2023/06/25 08:50:00;;;;;;;8.75;3.03;;;;;;;28.67;60.52;99352.56;4948990;28;20231;-77
2023/06/25 08:52:26;;;;;;;7.03;2.20;;;;;;;28.92;59.43;99359.59;4953246;28;20239;-76
2023/06/25 08:54:53;;;;;;;5.65;2.00;;;;;;;28.45;58.05;99238.38;4956006;28;20228;-77
2023/06/25 08:57:20;;;;;;;8.27;3.03;;;;;;;28.80;57.83;99281.69;4947048;28;20236;-75
2023/06/25 08:59:47;;;;;;;6.63;2.75;;;;;;;29.87;60.27;99425.91;4959044;28;20323;-75
2023/06/25 09:02:14;;;;;;;9.85;3.08;;;;;;;30.01;56.90;99365.66;4946397;28;20255;-75
2023/06/25 09:04:43;;;;;;;6.18;2.35;;;;;;;29.28;54.57;99195.81;4950833;28;20234;-77
2023/06/25 09:07:16;;;;;;;7.90;3.30;;;;;;;28.81;53.85;99092.94;4886222;28;20232;-75
2023/06/25 09:09:43;;;;;;;7.05;3.25;;;;;;;29.25;56.96;99211.56;4955455;28;20247;-76
2023/06/25 09:12:10;;;;;;;11.35;3.58;;;;;;;29.59;50.86;99119.59;4946236;28;20243;-76
2023/06/25 09:14:37;;;;;;;7.20;2.70;;;;;;;29.58;53.22;99151.41;4955261;28;20232;-76
2023/06/25 09:17:04;;;;;;;9.07;3.45;;;;;;;29.76;55.30;99219.72;4954496;28;20228;-76
2023/06/25 09:19:31;;;;;;;7.78;3.22;;;;;;;29.29;55.96;99147.66;4960232;28;20231;-77
2023/06/25 09:21:58;;;;;;;4.97;1.80;;;;;;;29.47;51.51;99060.75;4941108;28;20322;-77
2023/06/25 09:24:26;;;;;;;7.75;2.75;;;;;;;30.19;47.96;99077.72;4957697;28;20251;-77
2023/06/25 09:26:53;;;;;;;8.55;3.10;;;;;;;30.46;46.96;99049.69;4954862;28;20315;-77
2023/06/25 09:29:21;;;;;;;7.38;2.80;;;;;;;30.10;47.19;98971.38;4953361;28;20275;-77
2023/06/25 09:31:49;;;;;;;8.98;3.13;;;;;;;30.10;47.96;98969.50;4955346;28;20243;-77
2023/06/25 09:34:17;;;;;;;11.98;3.65;;;;;;;30.70;47.05;98999.28;4950194;28;20247;-76
2023/06/25 09:36:44;;;;;;;7.45;2.45;;;;;;;30.60;46.47;98963.81;4954897;28;20252;-76
2023/06/25 09:39:12;;;;;;;14.32;4.32;;;;;;;30.73;45.90;98942.53;4951754;28;20235;-76
2023/06/25 09:41:41;;;;;;;7.22;2.58;;;;;;;30.06;45.73;98834.50;4958007;28;20243;-76
2023/06/25 09:44:09;;;;;;;11.00;3.65;;;;;;;29.97;46.15;98819.03;4947227;28;20292;-76
2023/06/25 09:46:39;;;;;;;8.32;2.78;;;;;;;30.16;45.99;98848.13;4959738;28;20228;-77
2023/06/25 09:49:07;;;;;;;10.48;3.08;;;;;;;30.42;47.76;98933.72;4952233;28;20235;-76
2023/06/25 09:51:40;;;;;;;7.70;2.85;;;;;;;30.51;49.46;98976.47;4956487;28;20257;-76
2023/06/25 09:54:08;;;;;;;14.32;4.80;;;;;;;30.09;46.05;98812.41;4947445;28;20247;-76
2023/06/25 09:56:36;;;;;;;8.38;3.10;;;;;;;30.45;45.33;98848.00;4952955;28;20229;-76
2023/06/25 09:59:03;;;;;;;10.60;3.55;;;;;;;30.84;47.24;98949.66;4937997;28;20231;-76
2023/06/25 10:01:30;;;;;;;7.43;2.67;;;;;;;30.16;45.24;98772.63;4953332;28;20251;-77
2023/06/25 10:03:57;;;;;;;8.07;2.85;;;;;;;30.06;44.89;98743.69;4943525;28;20228;-76
2023/06/25 10:06:24;;;;;;;7.72;2.75;;;;;;;30.19;46.49;98815.09;4944854;28;20327;-76
2023/06/25 10:08:50;;;;;;;10.95;3.40;;;;;;;31.18;46.09;98948.06;4962549;28;20243;-76
2023/06/25 10:11:17;;;;;;;8.77;2.70;;;;;;;30.27;44.16;98751.63;4899601;28;20249;-76
2023/06/25 10:13:44;;;;;;;9.98;3.15;;;;;;;30.47;45.23;98813.25;4951586;28;20287;-76
2023/06/25 10:16:17;;;;;;;14.65;4.45;;;;;;;31.37;48.75;99025.47;4942581;28;20254;-75
2023/06/25 10:18:56;;;;;;;8.60;2.47;;;;;;;32.32;44.89;99030.41;4948664;28;20224;-76
2023/06/25 10:21:24;;;;;;;7.07;2.60;;;;;;;31.40;43.72;98842.13;4941009;28;20265;-77
2023/06/25 10:24:03;;;;;;;5.95;2.00;;;;;;;30.94;43.27;98747.63;4952137;28;20239;-76
2023/06/25 10:26:34;;;;;;;9.50;3.25;;;;;;;31.71;43.47;98856.25;4946874;28;20239;-76
2023/06/25 10:29:06;;;;;;;10.27;3.55;;;;;;;31.19;42.98;98742.25;4943494;28;20229;-76
2023/06/25 10:31:37;;;;;;;10.35;2.97;;;;;;;31.57;43.68;98827.59;4950275;28;20251;-76
2023/06/25 10:34:05;;;;;;;20.35;6.05;;;;;;;31.20;42.71;98713.06;4942229;28;20224;-76
2023/06/25 10:36:32;;;;;;;10.27;3.03;;;;;;;32.32;42.82;98869.00;4955335;28;20239;-76
2023/06/25 10:38:59;;;;;;;12.63;3.30;;;;;;;32.55;43.20;98899.44;4950324;28;20232;-76
2023/06/25 10:41:30;;;;;;;15.40;4.07;;;;;;;32.68;43.74;98895.22;4951837;28;20601;-76
2023/06/25 10:43:58;;;;;;;16.05;4.13;;;;;;;32.71;42.92;98864.78;4933653;28;20310;-77
2023/06/25 10:46:34;;;;;;;19.15;4.68;;;;;;;32.42;42.44;98777.59;4950571;28;20224;-76
2023/06/25 10:49:02;;;;;;;17.92;4.15;;;;;;;32.89;43.43;98877.53;4937980;28;20252;-76
2023/06/25 10:51:29;;;;;;;26.75;6.97;;;;;;;32.31;41.21;98711.38;4939375;28;20322;-76
2023/06/25 10:53:56;;;;;;;18.05;4.43;;;;;;;32.33;41.15;98714.78;4953889;28;20294;-76
2023/06/25 10:56:23;;;;;;;11.82;2.70;;;;;;;33.03;40.88;98806.56;4949010;28;20230;-76
2023/06/25 10:58:54;;;;;;;10.77;2.80;;;;;;;32.86;40.65;98733.63;4948875;28;20232;-83
2023/06/25 11:01:21;;;;;;;10.68;2.97;;;;;;;32.38;39.47;98625.72;4940084;28;20259;-78
2023/06/25 11:03:47;;;;;;;10.88;3.03;;;;;;;31.93;39.42;98549.56;4952932;28;20336;-77
2023/06/25 11:06:14;;;;;;;16.13;4.10;;;;;;;32.56;37.91;98619.28;4937517;28;20236;-77
2023/06/25 11:08:42;;;;;;;11.85;3.28;;;;;;;31.57;38.19;98412.31;4945803;28;20236;-79
2023/06/25 11:11:09;;;;;;;13.30;3.83;;;;;;;31.83;38.74;98502.38;4941101;28;20656;-79
2023/06/25 11:13:35;;;;;;;10.32;2.80;;;;;;;32.39;37.52;98550.84;4948478;28;20240;-78
2023/06/25 11:16:04;;;;;;;15.00;3.80;;;;;;;32.82;38.31;98620.00;4945341;28;20228;-80
2023/06/25 11:18:31;;;;;;;13.27;4.00;;;;;;;32.97;38.18;98639.34;4937376;28;20239;-79
2023/06/25 11:20:58;;;;;;;18.17;4.80;;;;;;;33.45;38.02;98678.69;4946250;28;20720;-80